sensor_id;sensor_type;location;lat;lon;timestamp;temperature;humidity
2579;DHT22;1299;48.282;14.398;2024-02-23T00:00:21;8.00;99.90
2579;DHT22;1299;48.282;14.398;2024-02-23T00:02:51;8.10;99.90
2579;DHT22;1299;48.282;14.398;2024-02-23T00:05:19;8.10;99.90
2579;DHT22;1299;48.282;14.398;2024-02-23T00:07:46;8.10;99.90
2579;DHT22;1299;48.282;14.398;2024-02-23T00:10:13;8.10;99.90
2579;DHT22;1299;48.282;14.398;2024-02-23T00:12:41;8.10;99.90
2579;DHT22;1299;48.282;14.398;2024-02-23T00:15:10;8.20;99.90
2579;DHT22;1299;48.282;14.398;2024-02-23T00:17:38;8.20;99.90
2579;DHT22;1299;48.282;14.398;2024-02-23T00:20:08;8.20;99.90
2579;DHT22;1299;48.282;14.398;2024-02-23T00:22:36;8.20;99.90
2579;DHT22;1299;48.282;14.398;2024-02-23T00:25:02;8.20;99.90
2579;DHT22;1299;48.282;14.398;2024-02-23T00:27:29;8.10;99.90
2579;DHT22;1299;48.282;14.398;2024-02-23T00:29:56;8.10;99.90
2579;DHT22;1299;48.282;14.398;2024-02-23T00:32:23;8.00;99.90
2579;DHT22;1299;48.282;14.398;2024-02-23T00:34:52;8.00;99.90
2579;DHT22;1299;48.282;14.398;2024-02-23T00:37:18;8.00;99.90
2579;DHT22;1299;48.282;14.398;2024-02-23T00:39:45;8.00;99.90
2579;DHT22;1299;48.282;14.398;2024-02-23T00:42:12;8.00;99.90
2579;DHT22;1299;48.282;14.398;2024-02-23T00:44:39;8.00;99.90
2579;DHT22;1299;48.282;14.398;2024-02-23T00:47:06;7.90;99.90
2579;DHT22;1299;48.282;14.398;2024-02-23T00:49:34;7.80;99.90
2579;DHT22;1299;48.282;14.398;2024-02-23T00:52:02;7.90;99.90
2579;DHT22;1299;48.282;14.398;2024-02-23T00:54:29;7.90;99.90
2579;DHT22;1299;48.282;14.398;2024-02-23T00:56:56;7.60;99.90
2579;DHT22;1299;48.282;14.398;2024-02-23T00:59:23;7.90;99.90
2579;DHT22;1299;48.282;14.398;2024-02-23T01:01:50;7.80;99.90
2579;DHT22;1299;48.282;14.398;2024-02-23T01:04:17;7.70;99.90
2579;DHT22;1299;48.282;14.398;2024-02-23T01:06:44;8.00;99.90
2579;DHT22;1299;48.282;14.398;2024-02-23T01:09:13;8.00;99.90
2579;DHT22;1299;48.282;14.398;2024-02-23T01:11:42;8.10;99.90
2579;DHT22;1299;48.282;14.398;2024-02-23T01:14:09;8.10;99.90
2579;DHT22;1299;48.282;14.398;2024-02-23T01:16:36;8.10;99.90
2579;DHT22;1299;48.282;14.398;2024-02-23T01:19:03;7.90;99.90
2579;DHT22;1299;48.282;14.398;2024-02-23T01:21:30;7.40;99.90
2579;DHT22;1299;48.282;14.398;2024-02-23T01:23:57;7.60;99.90
2579;DHT22;1299;48.282;14.398;2024-02-23T01:26:27;7.70;99.90
2579;DHT22;1299;48.282;14.398;2024-02-23T01:28:54;7.80;99.90
2579;DHT22;1299;48.282;14.398;2024-02-23T01:31:22;7.90;99.90
2579;DHT22;1299;48.282;14.398;2024-02-23T01:33:49;8.00;99.90
2579;DHT22;1299;48.282;14.398;2024-02-23T01:36:17;8.00;99.90
2579;DHT22;1299;48.282;14.398;2024-02-23T01:38:44;8.10;99.90
2579;DHT22;1299;48.282;14.398;2024-02-23T01:41:12;8.20;99.90
2579;DHT22;1299;48.282;14.398;2024-02-23T01:43:40;8.30;99.90
2579;DHT22;1299;48.282;14.398;2024-02-23T01:46:08;8.30;99.90
2579;DHT22;1299;48.282;14.398;2024-02-23T01:48:35;8.30;99.90
2579;DHT22;1299;48.282;14.398;2024-02-23T01:51:02;8.50;99.90
2579;DHT22;1299;48.282;14.398;2024-02-23T01:53:30;8.50;99.90
2579;DHT22;1299;48.282;14.398;2024-02-23T01:55:57;8.50;99.90
2579;DHT22;1299;48.282;14.398;2024-02-23T01:58:25;8.70;99.90
2579;DHT22;1299;48.282;14.398;2024-02-23T02:00:54;8.70;99.90
2579;DHT22;1299;48.282;14.398;2024-02-23T02:03:21;8.50;99.90
2579;DHT22;1299;48.282;14.398;2024-02-23T02:05:48;8.30;99.90
2579;DHT22;1299;48.282;14.398;2024-02-23T02:08:17;8.20;99.90
2579;DHT22;1299;48.282;14.398;2024-02-23T02:10:44;8.30;99.90
2579;DHT22;1299;48.282;14.398;2024-02-23T02:13:12;8.30;99.90
2579;DHT22;1299;48.282;14.398;2024-02-23T02:15:39;8.50;99.90
2579;DHT22;1299;48.282;14.398;2024-02-23T02:18:07;8.50;99.90
2579;DHT22;1299;48.282;14.398;2024-02-23T02:20:36;8.60;99.90
2579;DHT22;1299;48.282;14.398;2024-02-23T02:23:03;8.70;99.90
2579;DHT22;1299;48.282;14.398;2024-02-23T02:25:33;8.70;99.90
2579;DHT22;1299;48.282;14.398;2024-02-23T02:28:00;8.80;99.90
2579;DHT22;1299;48.282;14.398;2024-02-23T02:30:27;8.70;99.90
2579;DHT22;1299;48.282;14.398;2024-02-23T02:32:54;8.70;99.90
2579;DHT22;1299;48.282;14.398;2024-02-23T02:35:23;8.90;99.90
2579;DHT22;1299;48.282;14.398;2024-02-23T02:37:50;8.90;99.90
2579;DHT22;1299;48.282;14.398;2024-02-23T02:40:17;8.90;99.90
2579;DHT22;1299;48.282;14.398;2024-02-23T02:42:44;8.90;99.90
2579;DHT22;1299;48.282;14.398;2024-02-23T02:45:11;9.00;99.90
2579;DHT22;1299;48.282;14.398;2024-02-23T02:47:38;8.90;99.90
2579;DHT22;1299;48.282;14.398;2024-02-23T02:50:05;8.90;99.90
2579;DHT22;1299;48.282;14.398;2024-02-23T02:52:34;8.90;99.90
2579;DHT22;1299;48.282;14.398;2024-02-23T02:55:01;9.10;99.90
2579;DHT22;1299;48.282;14.398;2024-02-23T02:57:28;8.90;99.90
2579;DHT22;1299;48.282;14.398;2024-02-23T02:59:55;9.00;99.90
2579;DHT22;1299;48.282;14.398;2024-02-23T03:02:22;9.10;99.90
2579;DHT22;1299;48.282;14.398;2024-02-23T03:04:50;9.00;99.90
2579;DHT22;1299;48.282;14.398;2024-02-23T03:07:17;8.80;99.90
2579;DHT22;1299;48.282;14.398;2024-02-23T03:09:45;8.60;99.90
2579;DHT22;1299;48.282;14.398;2024-02-23T03:12:13;8.60;99.90
2579;DHT22;1299;48.282;14.398;2024-02-23T03:14:40;8.60;99.90
2579;DHT22;1299;48.282;14.398;2024-02-23T03:17:07;8.60;99.90
2579;DHT22;1299;48.282;14.398;2024-02-23T03:19:35;8.70;99.90
2579;DHT22;1299;48.282;14.398;2024-02-23T03:22:02;8.40;99.90
2579;DHT22;1299;48.282;14.398;2024-02-23T03:24:29;8.50;99.90
2579;DHT22;1299;48.282;14.398;2024-02-23T03:26:59;8.40;99.90
2579;DHT22;1299;48.282;14.398;2024-02-23T03:29:25;8.50;99.90
2579;DHT22;1299;48.282;14.398;2024-02-23T03:31:54;8.30;99.90
2579;DHT22;1299;48.282;14.398;2024-02-23T03:34:22;8.20;99.90
2579;DHT22;1299;48.282;14.398;2024-02-23T03:36:49;8.30;99.90
2579;DHT22;1299;48.282;14.398;2024-02-23T03:39:16;8.40;99.90
2579;DHT22;1299;48.282;14.398;2024-02-23T03:41:43;8.30;99.90
2579;DHT22;1299;48.282;14.398;2024-02-23T03:44:11;8.50;99.90
2579;DHT22;1299;48.282;14.398;2024-02-23T03:46:38;8.50;99.90
2579;DHT22;1299;48.282;14.398;2024-02-23T03:49:05;8.60;99.90
2579;DHT22;1299;48.282;14.398;2024-02-23T03:51:32;8.60;99.90
2579;DHT22;1299;48.282;14.398;2024-02-23T03:54:02;8.80;99.90
2579;DHT22;1299;48.282;14.398;2024-02-23T03:56:29;8.90;99.90
2579;DHT22;1299;48.282;14.398;2024-02-23T03:58:56;8.90;99.90
2579;DHT22;1299;48.282;14.398;2024-02-23T04:01:25;8.70;99.90
2579;DHT22;1299;48.282;14.398;2024-02-23T04:03:52;8.60;99.90
2579;DHT22;1299;48.282;14.398;2024-02-23T04:06:19;8.70;99.90
2579;DHT22;1299;48.282;14.398;2024-02-23T04:08:46;8.70;99.90
2579;DHT22;1299;48.282;14.398;2024-02-23T04:11:13;9.00;99.90
2579;DHT22;1299;48.282;14.398;2024-02-23T04:13:40;9.10;99.90
2579;DHT22;1299;48.282;14.398;2024-02-23T04:16:07;9.10;99.90
2579;DHT22;1299;48.282;14.398;2024-02-23T04:18:35;9.10;99.90
2579;DHT22;1299;48.282;14.398;2024-02-23T04:21:02;9.10;99.90
2579;DHT22;1299;48.282;14.398;2024-02-23T04:23:31;9.10;99.90
2579;DHT22;1299;48.282;14.398;2024-02-23T04:25:59;9.10;99.90
2579;DHT22;1299;48.282;14.398;2024-02-23T04:28:26;9.10;99.90
2579;DHT22;1299;48.282;14.398;2024-02-23T04:30:56;9.10;99.90
2579;DHT22;1299;48.282;14.398;2024-02-23T04:33:23;9.10;99.90
2579;DHT22;1299;48.282;14.398;2024-02-23T04:35:52;9.10;99.90
2579;DHT22;1299;48.282;14.398;2024-02-23T04:38:19;9.10;99.90
2579;DHT22;1299;48.282;14.398;2024-02-23T04:40:46;9.10;99.90
2579;DHT22;1299;48.282;14.398;2024-02-23T04:43:13;8.80;99.90
2579;DHT22;1299;48.282;14.398;2024-02-23T04:45:40;8.90;99.90
2579;DHT22;1299;48.282;14.398;2024-02-23T04:48:08;9.00;99.90
2579;DHT22;1299;48.282;14.398;2024-02-23T04:50:35;8.90;99.90
2579;DHT22;1299;48.282;14.398;2024-02-23T04:53:04;8.80;99.90
2579;DHT22;1299;48.282;14.398;2024-02-23T04:55:31;8.70;99.90
2579;DHT22;1299;48.282;14.398;2024-02-23T04:57:57;8.60;99.90
2579;DHT22;1299;48.282;14.398;2024-02-23T05:00:24;8.50;99.90
2579;DHT22;1299;48.282;14.398;2024-02-23T05:02:58;8.70;99.90
2579;DHT22;1299;48.282;14.398;2024-02-23T05:05:25;8.50;99.90
2579;DHT22;1299;48.282;14.398;2024-02-23T05:07:52;8.40;99.90
2579;DHT22;1299;48.282;14.398;2024-02-23T05:10:21;8.40;99.90
2579;DHT22;1299;48.282;14.398;2024-02-23T05:12:48;8.60;99.90
2579;DHT22;1299;48.282;14.398;2024-02-23T05:15:15;8.70;99.90
2579;DHT22;1299;48.282;14.398;2024-02-23T05:17:42;8.80;99.90
2579;DHT22;1299;48.282;14.398;2024-02-23T05:20:11;8.80;99.90
2579;DHT22;1299;48.282;14.398;2024-02-23T05:22:38;8.90;99.90
2579;DHT22;1299;48.282;14.398;2024-02-23T05:25:06;8.90;99.90
2579;DHT22;1299;48.282;14.398;2024-02-23T05:27:35;8.90;99.90
2579;DHT22;1299;48.282;14.398;2024-02-23T05:30:02;8.80;99.90
2579;DHT22;1299;48.282;14.398;2024-02-23T05:32:30;8.80;99.90
2579;DHT22;1299;48.282;14.398;2024-02-23T05:34:57;8.80;99.90
2579;DHT22;1299;48.282;14.398;2024-02-23T05:37:25;9.00;99.90
2579;DHT22;1299;48.282;14.398;2024-02-23T05:39:52;9.00;99.90
2579;DHT22;1299;48.282;14.398;2024-02-23T05:42:20;9.10;99.90
2579;DHT22;1299;48.282;14.398;2024-02-23T05:44:48;9.10;99.90
2579;DHT22;1299;48.282;14.398;2024-02-23T05:47:15;9.00;99.90
2579;DHT22;1299;48.282;14.398;2024-02-23T05:49:43;8.90;99.90
2579;DHT22;1299;48.282;14.398;2024-02-23T05:52:10;8.90;99.90
2579;DHT22;1299;48.282;14.398;2024-02-23T05:54:38;9.00;99.90
2579;DHT22;1299;48.282;14.398;2024-02-23T05:57:05;9.10;99.90
2579;DHT22;1299;48.282;14.398;2024-02-23T05:59:32;9.10;99.90
2579;DHT22;1299;48.282;14.398;2024-02-23T06:02:00;9.10;99.90
2579;DHT22;1299;48.282;14.398;2024-02-23T06:04:27;8.80;99.90
2579;DHT22;1299;48.282;14.398;2024-02-23T06:06:54;8.30;99.90
2579;DHT22;1299;48.282;14.398;2024-02-23T06:09:22;8.10;99.90
2579;DHT22;1299;48.282;14.398;2024-02-23T06:11:49;7.80;99.90
2579;DHT22;1299;48.282;14.398;2024-02-23T06:14:16;7.60;99.90
2579;DHT22;1299;48.282;14.398;2024-02-23T06:16:43;7.70;99.90
2579;DHT22;1299;48.282;14.398;2024-02-23T06:19:12;7.70;99.90
2579;DHT22;1299;48.282;14.398;2024-02-23T06:21:39;7.50;99.90
2579;DHT22;1299;48.282;14.398;2024-02-23T06:24:07;7.40;99.90
2579;DHT22;1299;48.282;14.398;2024-02-23T06:26:34;7.50;99.90
2579;DHT22;1299;48.282;14.398;2024-02-23T06:29:01;7.60;99.90
2579;DHT22;1299;48.282;14.398;2024-02-23T06:31:29;7.60;99.90
2579;DHT22;1299;48.282;14.398;2024-02-23T06:33:56;7.70;99.90
2579;DHT22;1299;48.282;14.398;2024-02-23T06:36:24;7.80;99.90
2579;DHT22;1299;48.282;14.398;2024-02-23T06:38:52;7.80;99.90
2579;DHT22;1299;48.282;14.398;2024-02-23T06:41:19;7.90;99.90
2579;DHT22;1299;48.282;14.398;2024-02-23T06:43:46;7.90;99.90
2579;DHT22;1299;48.282;14.398;2024-02-23T06:46:13;7.90;99.90
2579;DHT22;1299;48.282;14.398;2024-02-23T06:48:40;7.90;99.90
2579;DHT22;1299;48.282;14.398;2024-02-23T06:51:08;7.80;99.90
2579;DHT22;1299;48.282;14.398;2024-02-23T06:53:36;7.70;99.90
2579;DHT22;1299;48.282;14.398;2024-02-23T06:56:04;7.80;99.90
2579;DHT22;1299;48.282;14.398;2024-02-23T06:58:31;7.90;99.90
2579;DHT22;1299;48.282;14.398;2024-02-23T07:00:57;8.00;99.90
2579;DHT22;1299;48.282;14.398;2024-02-23T07:03:29;8.10;99.90
2579;DHT22;1299;48.282;14.398;2024-02-23T07:05:56;8.10;99.90
2579;DHT22;1299;48.282;14.398;2024-02-23T07:08:23;8.10;99.90
2579;DHT22;1299;48.282;14.398;2024-02-23T07:10:51;8.10;99.90
2579;DHT22;1299;48.282;14.398;2024-02-23T07:13:18;8.00;99.90
2579;DHT22;1299;48.282;14.398;2024-02-23T07:15:45;8.10;99.90
2579;DHT22;1299;48.282;14.398;2024-02-23T07:18:13;7.80;99.90
2579;DHT22;1299;48.282;14.398;2024-02-23T07:20:41;8.00;99.90
2579;DHT22;1299;48.282;14.398;2024-02-23T07:23:08;8.00;99.90
2579;DHT22;1299;48.282;14.398;2024-02-23T07:25:35;8.10;99.90
2579;DHT22;1299;48.282;14.398;2024-02-23T07:28:04;8.10;99.90
2579;DHT22;1299;48.282;14.398;2024-02-23T07:30:31;8.10;99.90
2579;DHT22;1299;48.282;14.398;2024-02-23T07:32:58;8.10;99.90
2579;DHT22;1299;48.282;14.398;2024-02-23T07:35:25;8.20;99.90
2579;DHT22;1299;48.282;14.398;2024-02-23T07:37:52;8.20;99.90
2579;DHT22;1299;48.282;14.398;2024-02-23T07:40:19;8.30;99.90
2579;DHT22;1299;48.282;14.398;2024-02-23T07:42:46;8.30;99.90
2579;DHT22;1299;48.282;14.398;2024-02-23T07:45:14;8.40;99.90
2579;DHT22;1299;48.282;14.398;2024-02-23T07:47:41;8.50;99.90
2579;DHT22;1299;48.282;14.398;2024-02-23T07:50:09;8.50;99.90
2579;DHT22;1299;48.282;14.398;2024-02-23T07:52:36;8.60;99.90
2579;DHT22;1299;48.282;14.398;2024-02-23T07:55:08;8.60;99.90
2579;DHT22;1299;48.282;14.398;2024-02-23T07:57:38;8.50;99.90
2579;DHT22;1299;48.282;14.398;2024-02-23T08:00:06;8.60;99.90
2579;DHT22;1299;48.282;14.398;2024-02-23T08:02:36;8.60;99.90
2579;DHT22;1299;48.282;14.398;2024-02-23T08:05:06;8.80;99.90
2579;DHT22;1299;48.282;14.398;2024-02-23T08:07:33;8.70;99.90
2579;DHT22;1299;48.282;14.398;2024-02-23T08:10:00;8.40;99.90
2579;DHT22;1299;48.282;14.398;2024-02-23T08:12:28;8.50;99.90
2579;DHT22;1299;48.282;14.398;2024-02-23T08:14:55;8.40;99.90
2579;DHT22;1299;48.282;14.398;2024-02-23T08:17:22;8.40;99.90
2579;DHT22;1299;48.282;14.398;2024-02-23T08:19:52;8.60;99.90
2579;DHT22;1299;48.282;14.398;2024-02-23T08:22:19;8.60;99.90
2579;DHT22;1299;48.282;14.398;2024-02-23T08:24:46;8.50;99.90
2579;DHT22;1299;48.282;14.398;2024-02-23T08:27:13;8.40;99.90
2579;DHT22;1299;48.282;14.398;2024-02-23T08:29:40;8.40;99.90
2579;DHT22;1299;48.282;14.398;2024-02-23T08:32:07;8.40;99.90
2579;DHT22;1299;48.282;14.398;2024-02-23T08:34:34;8.40;99.90
2579;DHT22;1299;48.282;14.398;2024-02-23T08:37:03;8.60;99.90
2579;DHT22;1299;48.282;14.398;2024-02-23T08:39:30;8.70;99.90
2579;DHT22;1299;48.282;14.398;2024-02-23T08:41:57;8.70;99.90
2579;DHT22;1299;48.282;14.398;2024-02-23T08:44:24;8.80;99.90
2579;DHT22;1299;48.282;14.398;2024-02-23T08:46:51;8.70;99.90
2579;DHT22;1299;48.282;14.398;2024-02-23T08:49:18;8.80;99.90
2579;DHT22;1299;48.282;14.398;2024-02-23T08:51:45;8.90;99.90
2579;DHT22;1299;48.282;14.398;2024-02-23T08:54:13;9.00;99.90
2579;DHT22;1299;48.282;14.398;2024-02-23T08:56:40;8.90;99.90
2579;DHT22;1299;48.282;14.398;2024-02-23T08:59:08;9.00;99.90
2579;DHT22;1299;48.282;14.398;2024-02-23T09:01:35;9.00;99.90
2579;DHT22;1299;48.282;14.398;2024-02-23T09:04:02;9.10;99.90
2579;DHT22;1299;48.282;14.398;2024-02-23T09:06:29;9.00;99.90
2579;DHT22;1299;48.282;14.398;2024-02-23T09:08:57;8.90;99.90
2579;DHT22;1299;48.282;14.398;2024-02-23T09:11:25;9.00;99.90
2579;DHT22;1299;48.282;14.398;2024-02-23T09:13:53;9.20;99.90
2579;DHT22;1299;48.282;14.398;2024-02-23T09:16:20;9.40;99.90
2579;DHT22;1299;48.282;14.398;2024-02-23T09:18:48;9.30;99.90
2579;DHT22;1299;48.282;14.398;2024-02-23T09:21:15;9.30;99.90
2579;DHT22;1299;48.282;14.398;2024-02-23T09:23:42;9.20;99.90
2579;DHT22;1299;48.282;14.398;2024-02-23T09:26:10;9.30;99.90
2579;DHT22;1299;48.282;14.398;2024-02-23T09:28:39;9.30;99.90
2579;DHT22;1299;48.282;14.398;2024-02-23T09:31:07;9.10;99.90
2579;DHT22;1299;48.282;14.398;2024-02-23T09:33:34;9.10;99.90
2579;DHT22;1299;48.282;14.398;2024-02-23T09:36:01;9.20;99.90
2579;DHT22;1299;48.282;14.398;2024-02-23T09:38:29;9.20;99.90
2579;DHT22;1299;48.282;14.398;2024-02-23T09:40:58;9.20;99.90
2579;DHT22;1299;48.282;14.398;2024-02-23T09:43:29;9.30;99.90
2579;DHT22;1299;48.282;14.398;2024-02-23T09:46:02;9.30;99.90
2579;DHT22;1299;48.282;14.398;2024-02-23T09:48:29;9.30;99.90
2579;DHT22;1299;48.282;14.398;2024-02-23T09:50:59;9.10;99.90
2579;DHT22;1299;48.282;14.398;2024-02-23T09:53:27;8.90;99.90
2579;DHT22;1299;48.282;14.398;2024-02-23T09:55:55;8.80;99.90
2579;DHT22;1299;48.282;14.398;2024-02-23T09:58:24;8.30;99.90
2579;DHT22;1299;48.282;14.398;2024-02-23T10:00:52;8.50;99.90
2579;DHT22;1299;48.282;14.398;2024-02-23T10:03:21;8.90;99.90
2579;DHT22;1299;48.282;14.398;2024-02-23T10:05:51;8.80;99.90
2579;DHT22;1299;48.282;14.398;2024-02-23T10:08:18;8.80;99.90
2579;DHT22;1299;48.282;14.398;2024-02-23T10:10:46;8.70;99.90
2579;DHT22;1299;48.282;14.398;2024-02-23T10:13:18;8.70;99.90
2579;DHT22;1299;48.282;14.398;2024-02-23T10:15:46;8.80;99.90
2579;DHT22;1299;48.282;14.398;2024-02-23T10:18:13;8.60;99.90
2579;DHT22;1299;48.282;14.398;2024-02-23T10:20:42;8.30;99.90
2579;DHT22;1299;48.282;14.398;2024-02-23T10:23:10;8.60;99.90
2579;DHT22;1299;48.282;14.398;2024-02-23T10:25:37;8.70;99.90
2579;DHT22;1299;48.282;14.398;2024-02-23T10:28:04;9.00;99.90
2579;DHT22;1299;48.282;14.398;2024-02-23T10:30:32;9.10;99.90
2579;DHT22;1299;48.282;14.398;2024-02-23T10:32:59;9.10;99.90
2579;DHT22;1299;48.282;14.398;2024-02-23T10:35:26;8.90;99.90
2579;DHT22;1299;48.282;14.398;2024-02-23T10:37:55;9.20;99.90
2579;DHT22;1299;48.282;14.398;2024-02-23T10:40:22;8.90;99.90
2579;DHT22;1299;48.282;14.398;2024-02-23T10:42:50;8.80;99.90
2579;DHT22;1299;48.282;14.398;2024-02-23T10:45:21;8.70;99.90
2579;DHT22;1299;48.282;14.398;2024-02-23T10:47:48;8.50;99.90
2579;DHT22;1299;48.282;14.398;2024-02-23T10:50:17;8.50;99.90
2579;DHT22;1299;48.282;14.398;2024-02-23T10:52:45;8.40;99.90
2579;DHT22;1299;48.282;14.398;2024-02-23T10:55:14;8.50;99.90
2579;DHT22;1299;48.282;14.398;2024-02-23T10:57:42;8.50;99.90
2579;DHT22;1299;48.282;14.398;2024-02-23T11:00:10;8.80;99.90
2579;DHT22;1299;48.282;14.398;2024-02-23T11:02:41;8.90;99.90
2579;DHT22;1299;48.282;14.398;2024-02-23T11:05:09;8.90;99.90
2579;DHT22;1299;48.282;14.398;2024-02-23T11:07:38;9.10;99.90
2579;DHT22;1299;48.282;14.398;2024-02-23T11:10:06;8.80;99.90
2579;DHT22;1299;48.282;14.398;2024-02-23T11:12:36;8.60;99.90
2579;DHT22;1299;48.282;14.398;2024-02-23T11:15:04;8.70;99.90
2579;DHT22;1299;48.282;14.398;2024-02-23T11:17:32;8.80;99.90
2579;DHT22;1299;48.282;14.398;2024-02-23T11:20:03;8.80;99.90
2579;DHT22;1299;48.282;14.398;2024-02-23T11:22:31;9.00;99.90
2579;DHT22;1299;48.282;14.398;2024-02-23T11:25:00;8.80;99.90
2579;DHT22;1299;48.282;14.398;2024-02-23T11:27:31;8.80;99.90
2579;DHT22;1299;48.282;14.398;2024-02-23T11:30:04;8.80;99.90
2579;DHT22;1299;48.282;14.398;2024-02-23T11:32:38;8.80;99.90
2579;DHT22;1299;48.282;14.398;2024-02-23T11:35:07;8.60;99.90
2579;DHT22;1299;48.282;14.398;2024-02-23T11:37:45;8.80;99.90
2579;DHT22;1299;48.282;14.398;2024-02-23T11:40:13;8.90;99.90
2579;DHT22;1299;48.282;14.398;2024-02-23T11:42:41;8.80;99.90
2579;DHT22;1299;48.282;14.398;2024-02-23T11:45:10;8.80;99.90
2579;DHT22;1299;48.282;14.398;2024-02-23T11:47:37;8.80;99.90
2579;DHT22;1299;48.282;14.398;2024-02-23T11:50:07;8.30;99.90
2579;DHT22;1299;48.282;14.398;2024-02-23T11:52:35;8.20;99.90
2579;DHT22;1299;48.282;14.398;2024-02-23T11:55:04;8.40;99.90
2579;DHT22;1299;48.282;14.398;2024-02-23T11:57:32;8.60;99.90
2579;DHT22;1299;48.282;14.398;2024-02-23T12:00:01;8.50;99.90
2579;DHT22;1299;48.282;14.398;2024-02-23T12:02:31;8.50;99.90
2579;DHT22;1299;48.282;14.398;2024-02-23T12:04:58;8.30;99.90
2579;DHT22;1299;48.282;14.398;2024-02-23T12:07:25;8.50;99.90
2579;DHT22;1299;48.282;14.398;2024-02-23T12:09:54;8.40;99.90
2579;DHT22;1299;48.282;14.398;2024-02-23T12:12:21;8.50;99.90
2579;DHT22;1299;48.282;14.398;2024-02-23T12:14:49;8.60;99.90
2579;DHT22;1299;48.282;14.398;2024-02-23T12:17:16;8.60;99.90
2579;DHT22;1299;48.282;14.398;2024-02-23T12:19:44;8.60;99.90
2579;DHT22;1299;48.282;14.398;2024-02-23T12:22:11;8.40;99.90
2579;DHT22;1299;48.282;14.398;2024-02-23T12:24:40;8.40;99.90
2579;DHT22;1299;48.282;14.398;2024-02-23T12:27:08;8.50;99.90
2579;DHT22;1299;48.282;14.398;2024-02-23T12:29:35;8.40;99.90
2579;DHT22;1299;48.282;14.398;2024-02-23T12:32:04;8.50;99.90
2579;DHT22;1299;48.282;14.398;2024-02-23T12:34:31;8.50;99.90
2579;DHT22;1299;48.282;14.398;2024-02-23T12:36:59;8.40;99.90
2579;DHT22;1299;48.282;14.398;2024-02-23T12:39:28;8.50;99.90
2579;DHT22;1299;48.282;14.398;2024-02-23T12:41:56;8.50;99.90
2579;DHT22;1299;48.282;14.398;2024-02-23T12:44:23;8.40;99.90
2579;DHT22;1299;48.282;14.398;2024-02-23T12:46:50;8.50;99.90
2579;DHT22;1299;48.282;14.398;2024-02-23T12:49:17;8.60;99.90
2579;DHT22;1299;48.282;14.398;2024-02-23T12:51:44;8.60;99.90
2579;DHT22;1299;48.282;14.398;2024-02-23T12:54:13;8.50;99.90
2579;DHT22;1299;48.282;14.398;2024-02-23T12:56:40;8.40;99.90
2579;DHT22;1299;48.282;14.398;2024-02-23T12:59:08;8.50;99.90
2579;DHT22;1299;48.282;14.398;2024-02-23T13:01:35;7.80;99.90
2579;DHT22;1299;48.282;14.398;2024-02-23T13:04:03;7.80;99.90
2579;DHT22;1299;48.282;14.398;2024-02-23T13:06:35;7.80;99.90
2579;DHT22;1299;48.282;14.398;2024-02-23T13:09:02;7.80;99.90
2579;DHT22;1299;48.282;14.398;2024-02-23T13:11:31;8.10;99.90
2579;DHT22;1299;48.282;14.398;2024-02-23T13:13:58;8.20;99.90
2579;DHT22;1299;48.282;14.398;2024-02-23T13:16:25;8.00;99.90
2579;DHT22;1299;48.282;14.398;2024-02-23T13:18:52;7.80;99.90
2579;DHT22;1299;48.282;14.398;2024-02-23T13:21:19;7.80;99.90
2579;DHT22;1299;48.282;14.398;2024-02-23T13:23:50;7.80;99.90
2579;DHT22;1299;48.282;14.398;2024-02-23T13:26:18;7.90;99.90
2579;DHT22;1299;48.282;14.398;2024-02-23T13:28:46;8.10;99.90
2579;DHT22;1299;48.282;14.398;2024-02-23T13:31:16;8.10;99.90
2579;DHT22;1299;48.282;14.398;2024-02-23T13:33:46;8.10;99.90
2579;DHT22;1299;48.282;14.398;2024-02-23T13:36:19;8.10;99.90
2579;DHT22;1299;48.282;14.398;2024-02-23T13:38:46;8.10;99.90
2579;DHT22;1299;48.282;14.398;2024-02-23T13:41:15;8.10;99.90
2579;DHT22;1299;48.282;14.398;2024-02-23T13:43:47;8.20;99.90
2579;DHT22;1299;48.282;14.398;2024-02-23T13:46:14;8.20;99.90
2579;DHT22;1299;48.282;14.398;2024-02-23T13:48:42;8.20;99.90
2579;DHT22;1299;48.282;14.398;2024-02-23T13:51:11;8.30;99.90
2579;DHT22;1299;48.282;14.398;2024-02-23T13:53:38;8.30;99.90
2579;DHT22;1299;48.282;14.398;2024-02-23T13:56:05;8.20;99.90
2579;DHT22;1299;48.282;14.398;2024-02-23T13:58:34;8.30;99.90
2579;DHT22;1299;48.282;14.398;2024-02-23T14:01:03;8.20;99.90
2579;DHT22;1299;48.282;14.398;2024-02-23T14:03:30;8.20;99.90
2579;DHT22;1299;48.282;14.398;2024-02-23T14:05:57;8.20;99.90
2579;DHT22;1299;48.282;14.398;2024-02-23T14:08:24;8.10;99.90
2579;DHT22;1299;48.282;14.398;2024-02-23T14:10:52;8.00;99.90
2579;DHT22;1299;48.282;14.398;2024-02-23T14:13:19;8.00;99.90
2579;DHT22;1299;48.282;14.398;2024-02-23T14:15:46;8.00;99.90
2579;DHT22;1299;48.282;14.398;2024-02-23T14:18:15;7.90;99.90
2579;DHT22;1299;48.282;14.398;2024-02-23T14:20:43;7.90;99.90
2579;DHT22;1299;48.282;14.398;2024-02-23T14:23:10;7.90;99.90
2579;DHT22;1299;48.282;14.398;2024-02-23T14:25:37;7.90;99.90
2579;DHT22;1299;48.282;14.398;2024-02-23T14:28:04;8.00;99.90
2579;DHT22;1299;48.282;14.398;2024-02-23T14:30:31;7.70;99.90
2579;DHT22;1299;48.282;14.398;2024-02-23T14:32:58;7.70;99.90
2579;DHT22;1299;48.282;14.398;2024-02-23T14:35:26;7.70;99.90
2579;DHT22;1299;48.282;14.398;2024-02-23T14:37:53;7.80;99.90
2579;DHT22;1299;48.282;14.398;2024-02-23T14:40:20;7.80;99.90
2579;DHT22;1299;48.282;14.398;2024-02-23T14:42:47;7.90;99.90
2579;DHT22;1299;48.282;14.398;2024-02-23T14:45:14;7.80;99.90
2579;DHT22;1299;48.282;14.398;2024-02-23T14:47:43;7.80;99.90
2579;DHT22;1299;48.282;14.398;2024-02-23T14:50:10;7.90;99.90
2579;DHT22;1299;48.282;14.398;2024-02-23T14:52:39;7.80;99.90
2579;DHT22;1299;48.282;14.398;2024-02-23T14:55:06;7.80;99.90
2579;DHT22;1299;48.282;14.398;2024-02-23T14:57:38;7.70;99.90
2579;DHT22;1299;48.282;14.398;2024-02-23T15:00:06;7.80;99.90
2579;DHT22;1299;48.282;14.398;2024-02-23T15:02:33;7.80;99.90
2579;DHT22;1299;48.282;14.398;2024-02-23T15:05:00;7.80;99.90
2579;DHT22;1299;48.282;14.398;2024-02-23T15:07:33;7.80;99.90
2579;DHT22;1299;48.282;14.398;2024-02-23T15:10:05;7.90;99.90
2579;DHT22;1299;48.282;14.398;2024-02-23T15:12:33;7.80;99.90
2579;DHT22;1299;48.282;14.398;2024-02-23T15:15:00;7.80;99.90
2579;DHT22;1299;48.282;14.398;2024-02-23T15:17:29;7.80;99.90
2579;DHT22;1299;48.282;14.398;2024-02-23T15:19:56;7.60;99.90
2579;DHT22;1299;48.282;14.398;2024-02-23T15:22:23;7.60;99.90
2579;DHT22;1299;48.282;14.398;2024-02-23T15:24:51;7.60;99.90
2579;DHT22;1299;48.282;14.398;2024-02-23T15:27:19;7.50;99.90
2579;DHT22;1299;48.282;14.398;2024-02-23T15:29:47;7.30;99.90
2579;DHT22;1299;48.282;14.398;2024-02-23T15:32:14;7.30;99.90
2579;DHT22;1299;48.282;14.398;2024-02-23T15:34:41;7.40;99.90
2579;DHT22;1299;48.282;14.398;2024-02-23T15:37:08;7.40;99.90
2579;DHT22;1299;48.282;14.398;2024-02-23T15:39:35;7.40;99.90
2579;DHT22;1299;48.282;14.398;2024-02-23T15:42:02;7.40;99.90
2579;DHT22;1299;48.282;14.398;2024-02-23T15:44:31;7.40;99.90
2579;DHT22;1299;48.282;14.398;2024-02-23T15:46:59;7.40;99.90
2579;DHT22;1299;48.282;14.398;2024-02-23T15:49:27;7.50;99.90
2579;DHT22;1299;48.282;14.398;2024-02-23T15:51:54;7.40;99.90
2579;DHT22;1299;48.282;14.398;2024-02-23T15:54:27;7.40;99.90
2579;DHT22;1299;48.282;14.398;2024-02-23T15:56:56;7.20;99.90
2579;DHT22;1299;48.282;14.398;2024-02-23T15:59:24;7.10;99.90
2579;DHT22;1299;48.282;14.398;2024-02-23T16:01:53;7.00;99.90
2579;DHT22;1299;48.282;14.398;2024-02-23T16:04:25;6.80;99.90